Main page
METAR-TAF:

METAR-TAF

Airports :

Vladivostok International Airport

Vladivostok, Russia

latitude: 43-07N, longitude: 131-56E, elevation: 184 m

Current weather observation

The report was made 43 minutes ago, at 02:30 UTC
Wind 8 kt from the South, varying between South/Southeast and West/Southwest
Temperature 27°C
Humidity 58%
Pressure 1003 hPa
Visibility 10 km or more

METAR: UHWW 100230Z 19004MPS 160V240 9999 NSC 27/18 Q1003 R25L/0///70 NOSIG RMK QFE751

Time: 13:13 (03:13 UTC)

Forecast

The report was made 1 hour and 13 minutes ago, at 02:00 UTC
Forecast valid from 10 at 03 UTC to 11 at 03 UTC
Wind 6 kt from the Southwest with gusts up to 16 kt
Visibility 10 km or more
Scattered clouds at a height of 3000 ft
Temporary
from 10 at 03 UTC to 10 at 12 UTC
Wind 23 kt from the Southwest
Becoming
from 10 at 13 UTC to 10 at 16 UTC
Wind 6 kt from the East/Southeast

TAF: UHWW 100200Z 1003/1103 22003G08MPS 9999 SCT030 TEMPO 1003/1012 23012MPS BECMG 1013/1016 11003MPS

Weather observations and forecasts of more than 4000 airports (METAR and TAF reports).

The available stations are represented by yellow and red dots on the map.

Hover mouse over dot to see the name of the station.

Then click to see weather observations and forecasts.

To change the map : click on the green buttons with a black cross to zoom in, on the green button with a dash to zoom out, or on the green arrows for adjacent maps.


METAR-TAF: